Time;durP1;ratioP1;P1;durP2;ratioP2;P2;SDS_P1;SDS_P2;PMS_P1;PMS_P2;Temp;Humidity;BMP_temperature;BMP_pressure;BME280_temperature;BME280_humidity;BME280_pressure;Samples;Min_cycle;Max_cycle;Signal;HPM_P1;HPM_P2
2021/10/30 00:00:58;;;;;;;41.33;34.85;;;10.20;96.50;;;;;;5085687;28;20400;-54
2021/10/30 00:03:23;;;;;;;42.42;33.97;;;10.10;96.70;;;;;;5085703;28;20031;-51
2021/10/30 00:05:50;;;;;;;43.22;33.70;;;10.00;96.80;;;;;;5081854;28;20766;-51
2021/10/30 00:08:16;;;;;;;41.85;34.83;;;10.00;96.80;;;;;;5083350;28;20036;-53
2021/10/30 00:10:43;;;;;;;42.22;33.35;;;10.10;96.70;;;;;;5082059;28;20050;-52
2021/10/30 00:13:09;;;;;;;45.53;35.25;;;10.10;96.60;;;;;;5082866;28;20021;-52
2021/10/30 00:15:34;;;;;;;44.13;34.97;;;10.10;96.50;;;;;;5083917;28;20030;-51
2021/10/30 00:18:01;;;;;;;41.03;34.38;;;10.10;96.50;;;;;;5084649;28;20026;-57
2021/10/30 00:20:26;;;;;;;43.05;33.83;;;10.10;96.70;;;;;;5083134;28;20025;-51
2021/10/30 00:22:52;;;;;;;39.47;33.00;;;10.00;96.70;;;;;;5083932;28;20089;-55
2021/10/30 00:25:18;;;;;;;43.55;34.22;;;10.00;96.80;;;;;;5084528;28;20055;-50
2021/10/30 00:27:43;;;;;;;42.90;34.05;;;10.10;96.80;;;;;;5082206;28;20033;-54
2021/10/30 00:30:09;;;;;;;39.58;33.55;;;10.00;96.80;;;;;;5083956;28;20101;-56
2021/10/30 00:32:36;;;;;;;44.20;34.65;;;10.10;96.80;;;;;;5079904;28;20035;-58
2021/10/30 00:35:02;;;;;;;44.20;34.05;;;10.00;96.80;;;;;;5084761;28;20036;-55
2021/10/30 00:37:28;;;;;;;42.67;33.35;;;10.00;96.80;;;;;;5082559;28;20491;-55
2021/10/30 00:39:53;;;;;;;42.35;33.20;;;10.00;96.80;;;;;;5083189;28;20028;-56
2021/10/30 00:42:19;;;;;;;44.10;34.72;;;10.10;96.80;;;;;;5082955;28;20091;-55
2021/10/30 00:44:44;;;;;;;39.55;33.15;;;10.10;96.70;;;;;;5081357;28;20024;-56
2021/10/30 00:47:10;;;;;;;45.22;33.72;;;10.10;96.80;;;;;;5082522;28;20047;-59
2021/10/30 00:49:36;;;;;;;42.92;33.35;;;10.20;96.80;;;;;;5083165;28;20056;-52
2021/10/30 00:52:02;;;;;;;41.80;33.83;;;10.10;96.70;;;;;;5081962;28;20396;-53
2021/10/30 00:54:30;;;;;;;41.60;33.63;;;10.10;96.80;;;;;;5082777;28;20017;-53
2021/10/30 00:56:59;;;;;;;41.08;33.53;;;10.10;96.90;;;;;;5069176;28;20070;-50
2021/10/30 00:59:25;;;;;;;42.70;34.75;;;10.00;96.80;;;;;;5081687;28;20108;-51
2021/10/30 01:01:51;;;;;;;44.38;35.65;;;10.00;96.90;;;;;;5083158;28;20036;-53
2021/10/30 01:04:18;;;;;;;42.63;34.78;;;10.00;96.80;;;;;;5083425;28;20067;-58
2021/10/30 01:06:46;;;;;;;42.08;34.20;;;10.00;96.90;;;;;;5082641;28;20024;-51
2021/10/30 01:09:12;;;;;;;43.47;35.17;;;9.90;96.90;;;;;;5084401;28;20032;-53
2021/10/30 01:11:41;;;;;;;43.58;35.25;;;10.00;96.90;;;;;;5082484;28;20035;-50
2021/10/30 01:14:08;;;;;;;47.08;36.67;;;10.00;96.80;;;;;;5079639;28;20103;-54
2021/10/30 01:16:33;;;;;;;43.00;35.72;;;10.00;96.80;;;;;;5082586;28;20057;-60
2021/10/30 01:19:00;;;;;;;48.13;37.55;;;10.00;96.60;;;;;;5083141;28;20103;-51
2021/10/30 01:21:26;;;;;;;45.65;35.25;;;9.90;96.60;;;;;;5082821;28;20032;-57
2021/10/30 01:23:53;;;;;;;44.95;35.47;;;9.90;96.40;;;;;;5080756;28;20035;-52
2021/10/30 01:26:21;;;;;;;41.75;34.03;;;9.90;96.40;;;;;;5081538;28;20050;-53
2021/10/30 01:28:48;;;;;;;41.88;35.67;;;9.90;96.50;;;;;;5076648;28;20435;-51
2021/10/30 01:31:13;;;;;;;40.05;32.78;;;10.00;96.60;;;;;;5072685;28;20033;-55
2021/10/30 01:33:42;;;;;;;39.58;32.78;;;9.90;96.60;;;;;;5073201;28;20048;-53
2021/10/30 01:36:09;;;;;;;40.03;33.13;;;9.90;96.70;;;;;;5072527;28;20397;-58
2021/10/30 01:38:36;;;;;;;39.47;33.17;;;9.90;96.70;;;;;;5073473;28;20071;-54
2021/10/30 01:41:02;;;;;;;41.00;32.05;;;10.00;96.60;;;;;;5072617;28;20492;-51
2021/10/30 01:43:27;;;;;;;40.38;33.08;;;9.90;96.90;;;;;;5072315;28;20054;-57
2021/10/30 01:45:53;;;;;;;39.13;33.03;;;9.90;96.90;;;;;;5072952;28;20123;-55
2021/10/30 01:48:19;;;;;;;40.38;32.70;;;9.90;96.80;;;;;;5071027;28;20052;-60
2021/10/30 01:50:45;;;;;;;40.20;32.35;;;9.90;96.80;;;;;;5072721;28;20035;-54
2021/10/30 01:53:10;;;;;;;40.72;31.13;;;9.90;96.70;;;;;;5072720;28;20435;-59
2021/10/30 01:55:38;;;;;;;41.25;33.15;;;9.80;96.70;;;;;;5072891;28;20055;-50
2021/10/30 01:58:05;;;;;;;39.85;31.75;;;9.80;96.60;;;;;;5073366;28;20116;-51
2021/10/30 02:00:32;;;;;;;37.67;31.17;;;9.80;96.90;;;;;;5072418;28;20098;-52
2021/10/30 02:02:57;;;;;;;42.80;34.80;;;9.80;97.10;;;;;;5072695;28;20372;-54
2021/10/30 02:05:23;;;;;;;54.30;40.20;;;9.80;97.00;;;;;;5070676;28;20041;-54
2021/10/30 02:07:49;;;;;;;73.22;48.90;;;9.80;97.00;;;;;;5072479;28;20027;-54
2021/10/30 02:10:15;;;;;;;78.90;52.78;;;9.70;96.90;;;;;;5072163;28;20040;-56
2021/10/30 02:12:43;;;;;;;60.35;42.42;;;9.70;97.00;;;;;;5079694;28;20027;-56
2021/10/30 02:15:09;;;;;;;46.72;35.97;;;9.60;97.10;;;;;;5092472;28;20036;-58
2021/10/30 02:17:34;;;;;;;42.72;34.28;;;9.70;97.10;;;;;;5091415;28;20036;-53
2021/10/30 02:20:00;;;;;;;40.67;32.22;;;9.70;96.90;;;;;;5092804;28;20071;-52
2021/10/30 02:22:26;;;;;;;38.72;31.80;;;9.70;96.60;;;;;;5092402;28;20031;-51
2021/10/30 02:24:52;;;;;;;42.10;32.47;;;9.70;96.40;;;;;;5092951;28;20403;-51
2021/10/30 02:27:18;;;;;;;42.80;33.58;;;9.70;96.40;;;;;;5093010;28;20024;-56
2021/10/30 02:29:44;;;;;;;38.70;32.05;;;9.60;96.50;;;;;;5092475;28;20028;-54
2021/10/30 02:32:10;;;;;;;40.10;32.28;;;9.60;96.60;;;;;;5092498;28;20630;-53
2021/10/30 02:34:36;;;;;;;61.05;44.47;;;9.60;96.50;;;;;;5093116;28;20056;-56
2021/10/30 02:37:02;;;;;;;47.17;37.47;;;9.70;96.40;;;;;;5093429;28;20084;-55
2021/10/30 02:39:28;;;;;;;43.63;35.05;;;9.70;96.40;;;;;;5093100;28;20127;-57
2021/10/30 02:41:53;;;;;;;39.70;33.03;;;9.70;96.40;;;;;;5092380;28;20556;-57
2021/10/30 02:44:19;;;;;;;41.38;33.30;;;9.60;96.60;;;;;;5092511;28;20028;-51
2021/10/30 02:46:44;;;;;;;42.70;32.83;;;9.70;96.60;;;;;;5091789;28;20031;-55
2021/10/30 02:49:10;;;;;;;41.75;34.05;;;9.70;96.60;;;;;;5080580;28;20028;-57
2021/10/30 02:51:36;;;;;;;41.33;33.47;;;9.70;96.40;;;;;;5071009;28;20036;-58
2021/10/30 02:54:01;;;;;;;41.22;32.40;;;9.70;96.40;;;;;;5075082;28;20535;-51
2021/10/30 02:56:27;;;;;;;43.92;35.92;;;9.70;96.50;;;;;;5076095;28;20029;-51
2021/10/30 02:58:53;;;;;;;42.50;34.75;;;9.70;96.60;;;;;;5073749;28;20108;-53
2021/10/30 03:01:18;;;;;;;44.78;33.72;;;9.60;96.60;;;;;;5075786;28;20033;-53
2021/10/30 03:03:44;;;;;;;45.45;35.30;;;9.70;96.60;;;;;;5075916;28;20399;-55
2021/10/30 03:06:10;;;;;;;44.85;35.45;;;9.60;96.70;;;;;;5075829;28;20037;-56
2021/10/30 03:08:36;;;;;;;44.55;35.83;;;9.60;96.70;;;;;;5076394;28;20032;-51
2021/10/30 03:11:01;;;;;;;46.03;37.00;;;9.70;96.70;;;;;;5075397;28;20400;-55
2021/10/30 03:13:28;;;;;;;44.25;35.50;;;9.50;96.70;;;;;;5088443;28;20098;-54
2021/10/30 03:15:55;;;;;;;45.67;34.95;;;9.50;96.80;;;;;;5095925;28;20028;-51
2021/10/30 03:18:21;;;;;;;43.35;34.45;;;9.50;96.90;;;;;;5095955;28;20585;-55
2021/10/30 03:20:47;;;;;;;44.72;35.78;;;9.50;96.90;;;;;;5095018;28;20028;-56
2021/10/30 03:23:13;;;;;;;43.25;33.67;;;9.50;96.90;;;;;;5096265;28;20059;-55
2021/10/30 03:25:39;;;;;;;43.85;34.08;;;9.50;97.30;;;;;;5096206;28;20109;-57
2021/10/30 03:28:04;;;;;;;42.33;33.75;;;9.40;97.10;;;;;;5096778;28;20093;-58
2021/10/30 03:30:30;;;;;;;48.53;35.08;;;9.40;97.00;;;;;;5095678;28;20036;-53
2021/10/30 03:32:56;;;;;;;48.00;35.85;;;9.30;97.10;;;;;;5095489;28;20036;-51
2021/10/30 03:35:21;;;;;;;47.33;37.70;;;9.30;97.20;;;;;;5095187;28;20101;-54
2021/10/30 03:37:47;;;;;;;48.67;38.00;;;9.30;97.20;;;;;;5095526;28;20036;-57
2021/10/30 03:40:12;;;;;;;46.92;36.55;;;9.30;97.20;;;;;;5095402;28;20039;-53
2021/10/30 03:42:38;;;;;;;47.95;37.33;;;9.30;97.30;;;;;;5095627;28;20028;-52
2021/10/30 03:45:06;;;;;;;47.00;37.40;;;9.30;97.30;;;;;;5095690;28;20028;-55
2021/10/30 03:47:32;;;;;;;45.30;36.45;;;9.20;97.30;;;;;;5094696;28;20036;-54
2021/10/30 03:49:58;;;;;;;48.50;38.25;;;9.20;97.50;;;;;;5095617;28;20032;-54
2021/10/30 03:52:24;;;;;;;47.55;38.00;;;9.30;97.30;;;;;;5095123;28;20412;-54
2021/10/30 03:54:50;;;;;;;45.83;37.25;;;9.20;97.40;;;;;;5095164;28;20028;-52
2021/10/30 03:57:16;;;;;;;45.15;35.88;;;9.20;97.40;;;;;;5095621;28;20031;-52
2021/10/30 03:59:42;;;;;;;45.55;35.88;;;9.20;97.60;;;;;;5094780;28;20024;-57
2021/10/30 04:02:08;;;;;;;46.45;34.90;;;9.20;97.70;;;;;;5094880;28;20064;-55
2021/10/30 04:04:33;;;;;;;46.17;34.60;;;9.20;97.70;;;;;;5095017;28;20071;-58
2021/10/30 04:07:00;;;;;;;44.47;34.33;;;9.20;97.60;;;;;;5095313;28;20602;-54
2021/10/30 04:09:26;;;;;;;43.92;36.55;;;9.20;97.60;;;;;;5094306;28;20036;-61
2021/10/30 04:11:52;;;;;;;44.60;35.55;;;9.20;97.60;;;;;;5094185;28;20028;-58
2021/10/30 04:14:19;;;;;;;46.13;35.30;;;9.20;97.80;;;;;;5074772;28;20099;-53
2021/10/30 04:16:44;;;;;;;46.97;35.75;;;9.10;97.80;;;;;;5074397;28;20083;-53
2021/10/30 04:19:13;;;;;;;50.35;35.80;;;9.00;97.90;;;;;;5074942;28;20403;-55
2021/10/30 04:21:38;;;;;;;48.90;36.35;;;9.10;97.90;;;;;;5086217;28;20093;-53
2021/10/30 04:24:04;;;;;;;47.38;37.25;;;9.00;97.90;;;;;;5094358;28;20031;-56
2021/10/30 04:26:30;;;;;;;47.83;35.42;;;9.00;98.00;;;;;;5093997;28;20089;-57
2021/10/30 04:28:56;;;;;;;50.50;39.10;;;8.90;98.10;;;;;;5094896;28;20036;-52
2021/10/30 04:31:22;;;;;;;48.85;39.00;;;8.90;98.10;;;;;;5094256;28;20036;-56
2021/10/30 04:33:49;;;;;;;46.88;37.75;;;8.90;98.10;;;;;;5095082;28;20115;-59
2021/10/30 04:36:16;;;;;;;48.63;39.38;;;8.90;98.20;;;;;;5094514;28;20028;-59
2021/10/30 04:38:42;;;;;;;50.78;40.60;;;8.80;98.20;;;;;;5094929;28;20078;-52
2021/10/30 04:41:08;;;;;;;45.15;37.78;;;8.80;98.30;;;;;;5095498;28;20032;-52
2021/10/30 04:43:34;;;;;;;50.35;41.40;;;8.80;98.40;;;;;;5095387;28;20108;-54
2021/10/30 04:46:00;;;;;;;50.15;40.88;;;8.70;98.40;;;;;;5094979;28;20067;-52
2021/10/30 04:48:25;;;;;;;49.45;39.33;;;8.70;98.60;;;;;;5095240;28;20103;-55
2021/10/30 04:50:52;;;;;;;49.85;38.10;;;8.70;98.60;;;;;;5092701;28;20128;-55
2021/10/30 04:53:18;;;;;;;54.30;41.63;;;8.70;98.50;;;;;;5094417;28;20031;-53
2021/10/30 04:55:44;;;;;;;53.15;40.63;;;8.70;98.50;;;;;;5094347;28;20119;-56
2021/10/30 04:58:09;;;;;;;51.08;40.97;;;8.70;98.60;;;;;;5094449;28;20510;-54
2021/10/30 05:00:35;;;;;;;51.38;39.72;;;8.70;98.70;;;;;;5096849;28;20020;-56
2021/10/30 05:03:00;;;;;;;48.90;39.08;;;8.70;98.50;;;;;;5092410;28;20166;-55
2021/10/30 05:05:26;;;;;;;46.92;37.03;;;8.70;98.60;;;;;;5092421;28;20032;-50
2021/10/30 05:07:51;;;;;;;47.95;37.35;;;8.70;98.60;;;;;;5092265;28;20119;-55
2021/10/30 05:10:17;;;;;;;49.45;40.40;;;8.70;98.60;;;;;;5091573;28;20040;-56
2021/10/30 05:12:43;;;;;;;49.95;38.17;;;8.70;98.40;;;;;;5085868;28;20043;-60
2021/10/30 05:15:09;;;;;;;45.28;36.13;;;8.70;98.60;;;;;;5071633;28;20433;-51
2021/10/30 05:17:34;;;;;;;48.42;36.17;;;8.70;98.50;;;;;;5071734;28;20032;-53
2021/10/30 05:20:00;;;;;;;45.03;34.38;;;8.60;98.50;;;;;;5071309;28;20119;-52
2021/10/30 05:22:25;;;;;;;42.50;34.53;;;8.60;98.50;;;;;;5087896;28;20028;-55
2021/10/30 05:24:51;;;;;;;52.35;39.55;;;8.60;98.60;;;;;;5091830;28;20028;-55
2021/10/30 05:27:17;;;;;;;49.42;38.95;;;8.50;98.50;;;;;;5092102;28;20036;-55
2021/10/30 05:29:42;;;;;;;55.13;41.35;;;8.40;98.60;;;;;;5091738;28;20048;-52
2021/10/30 05:32:08;;;;;;;51.17;40.38;;;8.50;98.80;;;;;;5091454;28;20466;-54
2021/10/30 05:34:34;;;;;;;50.88;40.13;;;8.40;98.70;;;;;;5092101;28;20040;-55
2021/10/30 05:36:59;;;;;;;51.42;39.70;;;8.50;98.70;;;;;;5091894;28;20716;-54
2021/10/30 05:39:25;;;;;;;49.83;40.55;;;8.50;98.80;;;;;;5092977;28;20032;-52
2021/10/30 05:41:51;;;;;;;50.17;40.55;;;8.40;98.90;;;;;;5093295;28;20043;-55
2021/10/30 05:44:17;;;;;;;50.30;41.55;;;8.40;99.00;;;;;;5092347;28;20043;-54
2021/10/30 05:46:43;;;;;;;51.75;39.40;;;8.40;99.00;;;;;;5093676;28;20032;-53
2021/10/30 05:49:10;;;;;;;50.55;40.10;;;8.50;98.90;;;;;;5093502;28;20027;-57
2021/10/30 05:51:35;;;;;;;53.78;41.47;;;8.50;98.80;;;;;;5093598;28;20028;-59
2021/10/30 05:54:02;;;;;;;50.80;39.97;;;8.40;98.90;;;;;;5093146;28;20054;-55
2021/10/30 05:56:28;;;;;;;50.50;40.42;;;8.40;99.00;;;;;;5092999;28;20508;-53
2021/10/30 05:58:54;;;;;;;51.97;41.03;;;8.40;99.00;;;;;;5093448;28;20038;-56
2021/10/30 06:01:19;;;;;;;49.83;41.42;;;8.40;98.90;;;;;;5094179;28;20059;-66
2021/10/30 06:03:45;;;;;;;51.90;41.13;;;8.50;98.90;;;;;;5092384;28;20043;-58
2021/10/30 06:06:11;;;;;;;52.67;41.05;;;8.40;99.10;;;;;;5093281;28;20036;-57
2021/10/30 06:08:37;;;;;;;50.92;40.28;;;8.40;98.80;;;;;;5092833;28;20059;-60
2021/10/30 06:11:02;;;;;;;51.38;40.88;;;8.50;98.90;;;;;;5092508;28;20071;-54
2021/10/30 06:13:28;;;;;;;68.30;49.30;;;8.40;98.90;;;;;;5071937;28;20631;-53
2021/10/30 06:15:53;;;;;;;55.00;44.22;;;8.30;98.80;;;;;;5072880;28;20094;-58
2021/10/30 06:18:19;;;;;;;54.47;42.63;;;8.40;98.90;;;;;;5071354;28;20029;-58
2021/10/30 06:20:45;;;;;;;51.47;40.47;;;8.40;99.00;;;;;;5058510;28;20035;-55
2021/10/30 06:23:13;;;;;;;56.22;42.00;;;8.50;98.90;;;;;;5072506;28;20069;-59
2021/10/30 06:25:40;;;;;;;56.15;43.13;;;8.40;98.90;;;;;;5072522;28;20044;-57
2021/10/30 06:28:06;;;;;;;62.28;45.72;;;8.50;99.00;;;;;;5091812;28;20081;-57
2021/10/30 06:30:31;;;;;;;54.33;42.45;;;8.50;98.60;;;;;;5096202;28;20035;-55
2021/10/30 06:32:57;;;;;;;56.45;42.53;;;8.60;98.70;;;;;;5096894;28;20558;-58
2021/10/30 06:35:22;;;;;;;60.58;44.75;;;8.60;98.60;;;;;;5095737;28;20364;-53
2021/10/30 06:37:48;;;;;;;57.78;43.25;;;8.70;98.60;;;;;;5096788;28;20032;-54
2021/10/30 06:40:14;;;;;;;55.25;44.38;;;8.60;98.50;;;;;;5079840;28;20064;-57
2021/10/30 06:42:41;;;;;;;53.13;41.85;;;8.60;98.70;;;;;;5076781;28;20039;-53
2021/10/30 06:45:07;;;;;;;46.63;38.72;;;8.70;98.60;;;;;;5077054;28;20044;-56
2021/10/30 06:47:33;;;;;;;54.75;43.47;;;8.80;98.40;;;;;;5074975;28;20039;-53
2021/10/30 06:49:59;;;;;;;51.53;39.40;;;8.90;98.30;;;;;;5075320;28;20029;-53
2021/10/30 06:52:31;;;;;;;57.88;44.17;;;8.90;98.40;;;;;;5076710;28;20033;-51
2021/10/30 06:54:56;;;;;;;63.28;47.15;;;8.90;98.30;;;;;;5087968;28;20024;-54
2021/10/30 06:57:22;;;;;;;73.00;51.63;;;9.00;98.10;;;;;;5095729;28;20036;-53
2021/10/30 06:59:48;;;;;;;67.93;48.35;;;9.00;97.90;;;;;;5082748;28;20024;-58
2021/10/30 07:02:13;;;;;;;57.75;45.08;;;9.00;98.20;;;;;;5076680;28;20119;-56
2021/10/30 07:04:39;;;;;;;59.45;44.60;;;9.00;98.10;;;;;;5084952;28;20032;-52
2021/10/30 07:07:05;;;;;;;51.45;41.08;;;9.00;98.00;;;;;;5096164;28;20027;-53
2021/10/30 07:09:31;;;;;;;50.80;40.13;;;9.00;98.20;;;;;;5095679;28;20514;-50
2021/10/30 07:11:56;;;;;;;50.45;39.72;;;9.00;98.10;;;;;;5095813;28;20063;-56
2021/10/30 07:14:22;;;;;;;53.13;42.10;;;9.10;98.10;;;;;;5096742;28;20031;-56
2021/10/30 07:16:49;;;;;;;57.30;44.17;;;9.10;98.10;;;;;;5096821;28;20089;-55
2021/10/30 07:19:15;;;;;;;52.97;42.70;;;9.10;97.80;;;;;;5094391;28;20089;-57
2021/10/30 07:21:40;;;;;;;53.63;43.15;;;9.10;97.90;;;;;;5095564;28;20396;-57
2021/10/30 07:24:06;;;;;;;52.58;41.25;;;9.10;97.90;;;;;;5090815;28;20042;-59
2021/10/30 07:26:32;;;;;;;62.13;47.28;;;9.20;98.00;;;;;;5088570;28;20590;-54
2021/10/30 07:28:58;;;;;;;63.65;46.83;;;9.20;97.90;;;;;;5079094;28;20032;-51
2021/10/30 07:31:23;;;;;;;58.17;44.42;;;9.20;97.80;;;;;;5074841;28;20495;-54
2021/10/30 07:33:49;;;;;;;57.95;43.67;;;9.30;97.80;;;;;;5094461;28;20067;-53
2021/10/30 07:36:15;;;;;;;49.63;40.50;;;9.30;97.70;;;;;;5094022;28;20028;-58
2021/10/30 07:38:40;;;;;;;49.70;41.72;;;9.40;97.80;;;;;;5080245;28;20116;-54
2021/10/30 07:41:06;;;;;;;53.55;41.40;;;9.50;97.70;;;;;;5075442;28;20045;-56
2021/10/30 07:43:33;;;;;;;51.45;41.20;;;9.50;97.50;;;;;;5075994;28;20036;-56
2021/10/30 07:45:59;;;;;;;51.33;41.47;;;9.50;97.40;;;;;;5081823;28;20051;-55
2021/10/30 07:48:25;;;;;;;48.75;39.92;;;9.60;97.30;;;;;;5082242;28;20495;-58
2021/10/30 07:50:50;;;;;;;46.08;38.35;;;9.60;97.30;;;;;;5084626;28;20028;-53
2021/10/30 07:53:17;;;;;;;52.40;42.00;;;9.70;97.30;;;;;;5083097;28;20036;-54
2021/10/30 07:55:42;;;;;;;57.33;44.10;;;9.70;97.10;;;;;;5083792;28;20408;-53
2021/10/30 07:58:08;;;;;;;55.08;43.72;;;9.80;97.00;;;;;;5081398;28;20040;-58
2021/10/30 08:00:34;;;;;;;48.95;40.85;;;9.80;96.90;;;;;;5082963;28;20032;-57
2021/10/30 08:03:00;;;;;;;55.05;43.47;;;9.90;96.90;;;;;;5083150;28;20105;-55
2021/10/30 08:05:25;;;;;;;48.40;38.45;;;9.90;96.70;;;;;;5086380;28;20038;-57
2021/10/30 08:07:51;;;;;;;52.85;41.78;;;10.00;96.80;;;;;;5081842;28;20043;-56
2021/10/30 08:10:17;;;;;;;53.03;42.58;;;10.10;96.40;;;;;;5079732;28;20517;-53
2021/10/30 08:12:44;;;;;;;56.38;41.17;;;10.20;96.60;;;;;;5085535;28;20062;-52
2021/10/30 08:15:10;;;;;;;46.38;37.88;;;10.30;96.60;;;;;;5086418;28;20451;-59
2021/10/30 08:17:35;;;;;;;49.25;38.83;;;10.50;96.50;;;;;;5089932;28;20036;-54
2021/10/30 08:20:02;;;;;;;50.65;40.05;;;10.60;96.70;;;;;;5087532;28;20484;-55
2021/10/30 08:22:28;;;;;;;50.42;40.60;;;10.80;96.20;;;;;;5085640;28;20039;-59
2021/10/30 08:24:53;;;;;;;46.65;38.10;;;10.80;95.90;;;;;;5083302;28;20399;-51
2021/10/30 08:27:19;;;;;;;50.17;38.72;;;10.90;96.10;;;;;;5084460;28;20024;-54
2021/10/30 08:29:45;;;;;;;51.28;38.00;;;11.00;95.70;;;;;;5081638;28;20095;-52
2021/10/30 08:32:11;;;;;;;48.88;38.20;;;11.10;95.50;;;;;;5083157;28;20036;-56
2021/10/30 08:34:38;;;;;;;44.88;37.30;;;11.20;95.30;;;;;;5083029;28;20035;-54
2021/10/30 08:37:03;;;;;;;47.08;38.45;;;11.30;95.20;;;;;;5084764;28;20023;-50
2021/10/30 08:39:29;;;;;;;45.05;38.15;;;11.40;94.90;;;;;;5082874;28;20476;-61
2021/10/30 08:41:55;;;;;;;43.88;37.63;;;11.30;94.80;;;;;;5084670;28;20031;-52
2021/10/30 08:44:22;;;;;;;46.28;37.55;;;11.40;94.90;;;;;;5092711;28;20036;-58
2021/10/30 08:46:52;;;;;;;45.70;37.50;;;11.50;94.70;;;;;;5077986;28;20027;-54
2021/10/30 08:49:19;;;;;;;45.05;36.85;;;11.50;94.80;;;;;;5083675;28;20020;-52
2021/10/30 08:51:45;;;;;;;46.25;37.88;;;11.60;94.50;;;;;;5080944;28;20024;-57
2021/10/30 08:54:11;;;;;;;46.35;38.22;;;11.70;94.30;;;;;;5087629;28;20136;-55
2021/10/30 08:56:40;;;;;;;42.80;36.78;;;11.60;94.20;;;;;;5086330;28;20061;-59
2021/10/30 08:59:07;;;;;;;44.22;35.92;;;11.70;94.20;;;;;;5091977;28;20032;-60
2021/10/30 09:01:49;;;;;;;41.75;35.03;;;11.80;94.10;;;;;;5094292;28;20035;-56
2021/10/30 09:04:17;;;;;;;44.65;35.80;;;11.90;94.10;;;;;;5092864;28;20475;-61
2021/10/30 09:06:54;;;;;;;44.50;36.78;;;12.10;93.90;;;;;;5088968;28;20043;-61
2021/10/30 09:09:20;;;;;;;41.42;35.25;;;12.10;93.70;;;;;;5093741;28;20021;-63
2021/10/30 09:12:03;;;;;;;43.08;35.60;;;12.20;93.60;;;;;;5093484;28;20109;-61
2021/10/30 09:14:31;;;;;;;38.15;33.47;;;12.40;93.20;;;;;;5093194;28;20108;-62
2021/10/30 09:17:17;;;;;;;40.97;36.40;;;12.50;93.00;;;;;;5088769;28;20032;-64
2021/10/30 09:19:48;;;;;;;48.28;40.05;;;12.50;92.70;;;;;;5088917;28;20027;-60
2021/10/30 09:22:15;;;;;;;43.25;35.33;;;12.60;92.40;;;;;;5096541;28;20032;-59
2021/10/30 09:25:01;;;;;;;37.88;31.58;;;12.60;92.30;;;;;;5094018;28;20059;-57
2021/10/30 09:27:51;;;;;;;43.90;35.35;;;12.70;92.50;;;;;;5092191;28;20034;-62
2021/10/30 09:30:19;;;;;;;39.78;34.85;;;12.90;92.20;;;;;;5083309;28;20544;-65
2021/10/30 09:32:56;;;;;;;40.20;33.97;;;12.90;92.10;;;;;;5080363;28;20020;-65
2021/10/30 09:35:43;;;;;;;44.28;36.33;;;12.90;91.70;;;;;;5080702;28;20035;-64
2021/10/30 09:38:26;;;;;;;42.78;34.45;;;13.00;91.70;;;;;;5083494;28;20424;-64
2021/10/30 09:40:52;;;;;;;39.13;34.03;;;13.00;91.70;;;;;;5085740;28;20040;-67
2021/10/30 09:43:20;;;;;;;43.60;36.05;;;13.00;91.60;;;;;;5093846;28;20095;-65
2021/10/30 09:45:50;;;;;;;41.25;33.25;;;13.10;91.40;;;;;;5092043;28;20058;-61
2021/10/30 09:48:21;;;;;;;41.50;35.05;;;13.20;91.40;;;;;;5093340;28;20036;-65
2021/10/30 09:50:55;;;;;;;40.63;34.92;;;13.40;91.00;;;;;;5093797;28;20028;-66
2021/10/30 09:53:50;;;;;;;39.90;33.83;;;13.40;90.90;;;;;;5084528;28;20036;-62
2021/10/30 09:56:15;;;;;;;40.50;33.70;;;13.30;90.70;;;;;;5047050;28;20509;-62
2021/10/30 09:58:43;;;;;;;39.08;33.00;;;13.20;90.70;;;;;;5073323;28;20049;-63
2021/10/30 10:01:18;;;;;;;39.60;33.38;;;13.30;90.60;;;;;;5072003;28;20032;-63
2021/10/30 10:03:47;;;;;;;36.67;30.38;;;13.30;90.40;;;;;;5073152;28;20047;-62
2021/10/30 10:06:17;;;;;;;40.47;34.92;;;13.40;90.40;;;;;;5073544;28;20571;-62
2021/10/30 10:08:46;;;;;;;45.78;36.53;;;13.40;90.20;;;;;;5073888;28;20147;-65
2021/10/30 10:11:16;;;;;;;38.30;33.08;;;13.40;90.20;;;;;;5070805;28;20036;-63
2021/10/30 10:13:48;;;;;;;41.97;36.13;;;13.40;90.00;;;;;;5086705;28;20055;-63
2021/10/30 10:16:15;;;;;;;36.97;32.50;;;13.30;90.00;;;;;;5093556;28;20043;-64
2021/10/30 10:18:42;;;;;;;39.30;33.95;;;13.30;90.10;;;;;;5093328;28;20491;-64
2021/10/30 10:21:12;;;;;;;34.33;30.60;;;13.40;90.10;;;;;;5090895;28;20490;-65
2021/10/30 10:23:40;;;;;;;38.63;32.55;;;13.60;90.10;;;;;;5092438;28;20081;-63
2021/10/30 10:26:05;;;;;;;37.03;30.42;;;13.80;89.40;;;;;;5092598;28;20032;-64
2021/10/30 10:28:39;;;;;;;40.22;33.05;;;14.00;89.30;;;;;;5092840;28;20032;-63
2021/10/30 10:31:11;;;;;;;41.17;34.55;;;14.00;89.30;;;;;;5092439;28;20040;-62
2021/10/30 10:33:38;;;;;;;36.08;31.75;;;14.20;89.40;;;;;;5092991;28;20095;-63
2021/10/30 10:36:13;;;;;;;42.63;34.42;;;14.20;89.30;;;;;;5093198;28;20055;-63
2021/10/30 10:38:57;;;;;;;38.10;34.00;;;14.20;89.10;;;;;;5094221;28;20383;-64
2021/10/30 10:41:38;;;;;;;35.23;31.17;;;14.30;88.60;;;;;;5093368;28;20058;-63
2021/10/30 10:44:07;;;;;;;37.28;33.28;;;14.40;88.30;;;;;;5091826;28;20515;-63
2021/10/30 10:46:40;;;;;;;39.45;33.35;;;14.40;87.80;;;;;;5093100;28;20092;-64
2021/10/30 10:49:20;;;;;;;37.63;32.08;;;14.40;87.40;;;;;;5092909;28;20024;-63
2021/10/30 10:52:02;;;;;;;40.90;33.50;;;14.50;87.60;;;;;;5092430;28;20024;-62
2021/10/30 10:54:48;;;;;;;41.47;33.45;;;14.40;87.60;;;;;;5093156;28;20029;-63
2021/10/30 10:57:24;;;;;;;35.67;31.70;;;14.40;87.40;;;;;;5092932;28;20032;-63
2021/10/30 11:00:18;;;;;;;41.60;34.85;;;14.50;87.30;;;;;;5092752;28;20080;-62
2021/10/30 11:02:49;;;;;;;37.33;31.15;;;14.60;86.90;;;;;;5093250;28;20028;-65
2021/10/30 11:05:18;;;;;;;37.70;33.22;;;14.80;87.10;;;;;;5091715;28;20111;-63
2021/10/30 11:07:46;;;;;;;40.55;34.63;;;14.90;87.10;;;;;;5092935;28;20028;-63
2021/10/30 11:10:20;;;;;;;36.38;32.50;;;14.70;86.70;;;;;;5092719;28;20382;-61
2021/10/30 11:13:01;;;;;;;37.90;33.22;;;14.70;87.70;;;;;;5093550;28;20428;-64
2021/10/30 11:15:43;;;;;;;37.55;33.30;;;14.80;86.80;;;;;;5096253;28;20491;-65
2021/10/30 11:21:10;;;;;;;;;;;14.90;85.70;;;;;;5097280;28;20387;-63
2021/10/30 11:23:56;;;;;;;37.58;32.25;;;14.80;86.00;;;;;;5096617;28;19935;-63
2021/10/30 11:26:24;;;;;;;37.95;32.58;;;14.80;86.20;;;;;;5097337;28;20047;-62
2021/10/30 11:28:51;;;;;;;37.58;32.78;;;14.80;86.00;;;;;;5097047;28;20177;-64
2021/10/30 11:31:21;;;;;;;35.70;31.70;;;14.90;86.10;;;;;;5096050;28;20032;-63
2021/10/30 11:33:58;;;;;;;40.35;31.13;;;14.90;86.10;;;;;;5096234;28;20064;-63
2021/10/30 11:36:24;;;;;;;38.83;31.45;;;14.80;85.80;;;;;;5080461;28;20028;-64
2021/10/30 11:38:54;;;;;;;39.45;31.52;;;14.80;85.70;;;;;;5083958;28;20036;-64
2021/10/30 11:41:25;;;;;;;34.45;30.20;;;14.80;85.60;;;;;;5083260;28;20043;-63
2021/10/30 11:44:06;;;;;;;34.55;29.73;;;14.80;86.00;;;;;;5084655;28;20032;-63
2021/10/30 11:46:46;;;;;;;34.60;29.40;;;14.90;85.60;;;;;;5085023;28;20480;-63
2021/10/30 11:49:33;;;;;;;39.08;31.08;;;14.70;85.80;;;;;;5083915;28;20036;-64
2021/10/30 11:52:04;;;;;;;35.60;29.70;;;14.80;86.00;;;;;;5085731;28;20050;-62
2021/10/30 11:54:30;;;;;;;39.05;30.20;;;15.10;85.70;;;;;;5095757;28;20054;-64
2021/10/30 11:56:57;;;;;;;33.60;29.98;;;15.10;85.10;;;;;;5095751;28;20053;-62
2021/10/30 11:59:23;;;;;;;33.10;28.80;;;15.20;85.20;;;;;;5096504;28;20042;-63
2021/10/30 12:01:49;;;;;;;35.80;29.92;;;15.20;85.10;;;;;;5089339;28;20395;-62
2021/10/30 12:04:24;;;;;;;35.00;30.58;;;15.20;84.80;;;;;;5075958;28;20067;-61
2021/10/30 12:06:58;;;;;;;34.00;29.30;;;15.30;84.40;;;;;;5075311;28;20032;-62
2021/10/30 12:09:34;;;;;;;37.55;31.42;;;15.40;83.10;;;;;;5075538;28;20032;-62
2021/10/30 12:12:04;;;;;;;32.67;28.08;;;15.40;82.90;;;;;;5079765;28;20044;-62
2021/10/30 12:14:36;;;;;;;33.40;28.40;;;15.30;83.10;;;;;;5085953;28;20483;-62
2021/10/30 12:17:05;;;;;;;39.38;30.38;;;15.30;84.20;;;;;;5083033;28;20035;-62
2021/10/30 12:19:36;;;;;;;36.03;30.75;;;15.40;84.30;;;;;;5084629;28;20487;-61
2021/10/30 12:22:10;;;;;;;32.22;28.67;;;15.50;84.90;;;;;;5085602;28;20029;-62
2021/10/30 12:24:37;;;;;;;32.83;27.58;;;15.60;84.40;;;;;;5085298;28;20096;-61
2021/10/30 12:27:05;;;;;;;33.22;25.23;;;15.80;84.20;;;;;;5085885;28;20036;-61
2021/10/30 12:29:35;;;;;;;34.45;28.58;;;15.90;84.70;;;;;;5086374;28;20031;-64
2021/10/30 12:32:02;;;;;;;30.77;27.20;;;16.00;85.00;;;;;;5083647;28;20540;-62
2021/10/30 12:34:30;;;;;;;31.30;25.45;;;16.20;83.00;;;;;;5084023;28;20365;-61
2021/10/30 12:36:56;;;;;;;33.08;25.88;;;16.20;82.80;;;;;;5087458;28;20086;-62
2021/10/30 12:39:24;;;;;;;31.10;27.45;;;16.20;83.20;;;;;;5087022;28;20077;-61